createdAt,value
2023-03-16T00:01:23.958Z,3.48
2023-03-16T00:04:26.654Z,3.46
2023-03-16T00:07:29.311Z,3.34
2023-03-16T00:10:31.972Z,3.33
2023-03-16T00:13:34.612Z,3.28
2023-03-16T00:16:37.165Z,3.31
2023-03-16T00:19:39.713Z,3.29
2023-03-16T00:22:42.284Z,3.16
2023-03-16T00:25:44.822Z,3.08
2023-03-16T00:28:47.397Z,2.86
2023-03-16T00:31:50.187Z,2.90
2023-03-16T00:34:54.026Z,2.79
2023-03-16T00:37:57.467Z,2.70
2023-03-16T00:41:04.105Z,2.64
2023-03-16T00:44:06.680Z,2.60
2023-03-16T00:47:14.596Z,2.53
2023-03-16T00:50:17.323Z,2.52
2023-03-16T00:53:20.004Z,2.51
2023-03-16T00:56:22.694Z,2.58
2023-03-16T00:59:26.355Z,2.52
2023-03-16T01:02:28.898Z,2.43
2023-03-16T01:05:33.535Z,2.53
2023-03-16T01:08:40.509Z,2.51
2023-03-16T01:11:43.327Z,2.51
2023-03-16T01:14:47.450Z,2.41
2023-03-16T01:17:50.004Z,2.29
2023-03-16T01:20:53.521Z,2.19
2023-03-16T01:23:56.786Z,2.20
2023-03-16T01:26:59.415Z,2.12
2023-03-16T01:30:02.559Z,2.06
2023-03-16T01:33:06.298Z,1.92
2023-03-16T01:36:11.836Z,1.87
2023-03-16T01:39:26.564Z,1.76
2023-03-16T01:42:29.800Z,1.67
2023-03-16T01:46:00.333Z,1.67
2023-03-16T01:49:13.521Z,1.68
2023-03-16T01:52:22.762Z,1.76
2023-03-16T01:55:25.219Z,1.65
2023-03-16T01:58:30.334Z,1.61
2023-03-16T02:01:33.473Z,1.51
2023-03-16T02:04:39.623Z,1.46
2023-03-16T02:07:49.465Z,1.45
2023-03-16T02:10:54.832Z,1.43
2023-03-16T02:14:05.302Z,1.41
2023-03-16T02:17:07.980Z,1.35
2023-03-16T02:20:36.292Z,1.24
2023-03-16T02:23:38.971Z,1.07
2023-03-16T02:26:48.756Z,0.92
2023-03-16T02:30:06.542Z,0.85
2023-03-16T02:33:19.800Z,0.67
2023-03-16T02:36:22.622Z,0.58
2023-03-16T02:39:25.676Z,0.46
2023-03-16T02:42:29.260Z,0.29
2023-03-16T02:45:44.723Z,0.14
2023-03-16T02:49:03.014Z,-0.11
2023-03-16T02:52:07.527Z,-0.20
2023-03-16T02:55:10.516Z,-0.33
2023-03-16T02:58:14.925Z,-0.44
2023-03-16T03:01:17.585Z,-0.48
2023-03-16T03:04:23.517Z,-0.53
2023-03-16T03:07:31.878Z,-0.63
2023-03-16T03:10:38.860Z,-0.66
2023-03-16T03:13:43.779Z,-0.65
2023-03-16T03:16:52.266Z,-0.70
2023-03-16T03:19:54.833Z,-0.68
2023-03-16T03:22:57.683Z,-0.58
2023-03-16T03:26:00.889Z,-0.70
2023-03-16T03:29:04.777Z,-0.73
2023-03-16T03:32:09.419Z,-0.78
2023-03-16T03:35:14.237Z,-0.85
2023-03-16T03:38:16.939Z,-0.89
2023-03-16T03:41:22.537Z,-0.97
2023-03-16T03:44:27.033Z,-0.95
2023-03-16T03:47:30.987Z,-1.01
2023-03-16T03:50:35.188Z,-1.08
2023-03-16T03:53:57.158Z,-1.10
2023-03-16T03:57:25.679Z,-1.06
2023-03-16T04:00:28.446Z,-1.01
2023-03-16T04:03:31.422Z,-1.15
2023-03-16T04:06:34.024Z,-1.22
2023-03-16T04:09:36.885Z,-1.19
2023-03-16T04:12:40.189Z,-1.30
2023-03-16T04:15:47.048Z,-1.29
2023-03-16T04:18:57.255Z,-1.37
2023-03-16T04:22:00.058Z,-1.42
2023-03-16T04:25:05.297Z,-1.41
2023-03-16T04:28:11.693Z,-1.38
2023-03-16T04:31:15.954Z,-1.38
2023-03-16T04:34:25.176Z,-1.47
2023-03-16T04:37:31.511Z,-1.48
2023-03-16T04:40:34.091Z,-1.52
2023-03-16T04:43:46.718Z,-1.47
2023-03-16T04:46:54.865Z,-1.47
2023-03-16T04:50:01.450Z,-1.50
2023-03-16T04:53:04.745Z,-1.46
2023-03-16T04:56:08.696Z,-1.39
2023-03-16T04:59:12.408Z,-1.44
2023-03-16T05:02:33.064Z,-1.48
2023-03-16T05:05:38.573Z,-1.48
2023-03-16T05:08:41.311Z,-1.51
2023-03-16T05:11:44.111Z,-1.51
2023-03-16T05:14:48.301Z,-1.51
2023-03-16T05:18:09.275Z,-1.44
2023-03-16T05:21:12.870Z,-1.33
2023-03-16T05:24:37.257Z,-1.25
2023-03-16T05:27:41.808Z,-1.23
2023-03-16T05:30:45.998Z,-1.22
2023-03-16T05:33:54.248Z,-1.25
2023-03-16T05:36:58.481Z,-1.15
2023-03-16T05:40:01.647Z,-1.07
2023-03-16T05:43:04.920Z,-1.04
2023-03-16T05:46:11.790Z,-0.97
2023-03-16T05:49:15.636Z,-0.89
2023-03-16T05:52:18.302Z,-0.73
2023-03-16T05:55:20.954Z,-0.68
2023-03-16T05:58:33.990Z,-0.58
2023-03-16T06:01:40.220Z,-0.45
2023-03-16T06:04:43.655Z,-0.30
2023-03-16T06:07:46.398Z,-0.20
2023-03-16T06:10:51.072Z,-0.10
2023-03-16T06:13:57.951Z,0.01
2023-03-16T06:17:00.913Z,0.14
2023-03-16T06:20:11.417Z,0.38
2023-03-16T06:23:16.244Z,0.43
2023-03-16T06:26:19.447Z,0.88
2023-03-16T06:29:23.629Z,1.47
2023-03-16T06:32:26.410Z,1.89
2023-03-16T06:35:30.241Z,2.37
2023-03-16T06:38:47.893Z,2.73
2023-03-16T06:42:23.879Z,3.03
2023-03-16T06:45:27.413Z,3.40
2023-03-16T06:48:31.871Z,3.68
2023-03-16T06:51:35.340Z,3.85
2023-03-16T06:54:38.426Z,3.92
2023-03-16T06:57:42.887Z,4.08
2023-03-16T07:00:49.080Z,4.27
2023-03-16T07:03:55.016Z,4.31
2023-03-16T07:07:03.896Z,4.38
2023-03-16T07:10:09.404Z,4.49
2023-03-16T07:13:12.993Z,4.54
2023-03-16T07:16:16.939Z,4.67
2023-03-16T07:19:21.186Z,4.73
2023-03-16T07:22:24.898Z,4.82
2023-03-16T07:25:28.767Z,4.85
2023-03-16T07:28:32.289Z,4.91
2023-03-16T07:31:37.026Z,4.96
2023-03-16T07:34:45.709Z,5.06
2023-03-16T07:37:49.446Z,5.15
2023-03-16T07:40:52.297Z,5.12
2023-03-16T07:43:58.507Z,5.22
2023-03-16T07:47:01.718Z,5.32
2023-03-16T07:50:06.885Z,5.34
2023-03-16T07:53:10.405Z,5.42
2023-03-16T07:56:15.783Z,5.51
2023-03-16T07:59:21.515Z,5.55
2023-03-16T08:02:25.805Z,5.59
2023-03-16T08:05:34.616Z,5.62
2023-03-16T08:08:43.250Z,5.62
2023-03-16T08:11:52.806Z,5.78
2023-03-16T08:14:55.393Z,5.77
2023-03-16T08:18:02.649Z,5.84
2023-03-16T08:21:06.800Z,5.80
2023-03-16T08:24:09.535Z,5.76
2023-03-16T08:27:13.574Z,5.92
2023-03-16T08:30:20.900Z,6.11
2023-03-16T08:33:31.708Z,6.23
2023-03-16T08:36:35.038Z,6.22
2023-03-16T08:39:42.266Z,6.33
2023-03-16T08:42:50.138Z,6.54
2023-03-16T08:45:56.033Z,6.56
2023-03-16T08:49:03.060Z,6.56
2023-03-16T08:52:10.485Z,6.59
2023-03-16T08:55:13.387Z,6.66
2023-03-16T08:58:16.028Z,6.64
2023-03-16T09:01:19.809Z,6.61
2023-03-16T09:04:25.030Z,6.64
2023-03-16T09:07:29.253Z,6.68
2023-03-16T09:10:33.187Z,6.76
2023-03-16T09:13:36.899Z,6.74
2023-03-16T09:16:39.637Z,6.92
2023-03-16T09:19:51.942Z,7.02
2023-03-16T09:22:57.113Z,7.04
2023-03-16T09:26:03.101Z,7.15
2023-03-16T09:29:07.048Z,7.28
2023-03-16T09:32:10.512Z,7.39
2023-03-16T09:41:27.291Z,7.37
2023-03-16T09:50:48.245Z,7.66
2023-03-16T09:53:58.553Z,7.59
2023-03-16T09:57:02.059Z,7.73
2023-03-16T10:00:16.181Z,7.69
2023-03-16T10:03:28.715Z,7.63
2023-03-16T10:06:33.170Z,7.66
2023-03-16T10:09:57.583Z,7.75
2023-03-16T10:13:01.636Z,7.99
2023-03-16T10:16:11.192Z,8.07
2023-03-16T10:19:31.055Z,7.93
2023-03-16T10:22:37.497Z,8.06
2023-03-16T10:25:51.223Z,8.12
2023-03-16T10:28:55.050Z,8.09
2023-03-16T10:32:06.943Z,8.16
2023-03-16T10:35:38.524Z,8.34
2023-03-16T10:38:43.221Z,8.05
2023-03-16T10:41:58.234Z,8.08
2023-03-16T10:45:03.261Z,7.96
2023-03-16T10:48:14.642Z,8.03
2023-03-16T10:51:20.573Z,8.27
2023-03-16T10:54:40.109Z,8.50
2023-03-16T10:57:48.740Z,8.27
2023-03-16T11:00:55.566Z,8.42
2023-03-16T11:03:59.377Z,8.31
2023-03-16T11:07:01.880Z,8.55
2023-03-16T11:10:25.328Z,8.66
2023-03-16T11:13:38.032Z,8.80
2023-03-16T11:16:53.751Z,8.85
2023-03-16T11:20:18.536Z,8.96
2023-03-16T11:23:29.756Z,8.96
2023-03-16T11:26:39.870Z,8.90
2023-03-16T11:30:07.687Z,9.15
2023-03-16T11:33:14.439Z,9.23
2023-03-16T11:36:30.185Z,9.20
2023-03-16T11:39:42.786Z,9.20
2023-03-16T11:43:04.216Z,9.10
2023-03-16T11:46:23.110Z,9.38
2023-03-16T11:49:29.787Z,9.51
2023-03-16T11:52:51.180Z,9.59
2023-03-16T11:56:19.095Z,9.74
2023-03-16T11:59:42.396Z,9.95
2023-03-16T12:03:28.938Z,10.02
2023-03-16T12:06:40.142Z,10.17
2023-03-16T12:10:19.158Z,10.33
2023-03-16T12:14:00.828Z,10.30
2023-03-16T12:17:08.812Z,10.21
2023-03-16T12:20:21.984Z,10.59
2023-03-16T12:23:50.930Z,10.42
2023-03-16T12:26:55.592Z,10.79
2023-03-16T12:30:30.707Z,11.19
2023-03-16T12:34:19.299Z,11.45
2023-03-16T12:37:41.558Z,12.28
2023-03-16T12:41:08.308Z,11.73
2023-03-16T12:44:34.543Z,12.67
2023-03-16T12:48:10.139Z,12.76
2023-03-16T12:51:13.036Z,13.63
2023-03-16T12:54:24.081Z,14.11
2023-03-16T12:57:27.576Z,13.72
2023-03-16T13:00:57.895Z,12.58
2023-03-16T13:04:31.105Z,13.67
2023-03-16T13:07:35.350Z,14.11
2023-03-16T13:10:40.572Z,15.07
2023-03-16T13:13:53.174Z,15.24
2023-03-16T13:17:22.502Z,15.44
2023-03-16T13:20:32.268Z,15.57
2023-03-16T13:24:00.322Z,15.52
2023-03-16T13:27:15.679Z,15.25
2023-03-16T13:30:25.700Z,15.82
2023-03-16T13:33:33.123Z,16.49
2023-03-16T13:36:45.470Z,15.13
2023-03-16T13:39:59.994Z,15.26
2023-03-16T13:43:02.943Z,16.03
2023-03-16T13:46:19.946Z,16.51
2023-03-16T13:49:22.996Z,15.92
2023-03-16T13:52:31.660Z,16.89
2023-03-16T13:55:38.568Z,17.26
2023-03-16T13:58:45.567Z,16.93
2023-03-16T14:01:50.185Z,16.00
2023-03-16T14:04:56.306Z,16.16
2023-03-16T14:08:01.077Z,16.06
2023-03-16T14:11:04.082Z,16.58
2023-03-16T14:14:16.838Z,16.36
2023-03-16T14:17:21.742Z,17.14
2023-03-16T14:20:26.100Z,17.40
2023-03-16T14:23:36.459Z,17.66
2023-03-16T14:26:41.821Z,17.95
2023-03-16T14:29:47.580Z,17.51
2023-03-16T14:32:59.966Z,17.09
2023-03-16T14:36:16.503Z,16.20
2023-03-16T14:39:27.857Z,16.01
2023-03-16T14:42:31.635Z,17.12
2023-03-16T14:45:37.097Z,17.00
2023-03-16T14:48:41.256Z,16.25
2023-03-16T14:51:45.942Z,15.51
2023-03-16T14:54:49.033Z,16.94
2023-03-16T14:57:51.866Z,17.45
2023-03-16T15:00:55.308Z,17.55
2023-03-16T15:03:59.236Z,16.90
2023-03-16T15:07:07.168Z,17.73
2023-03-16T15:10:20.364Z,16.95
2023-03-16T15:13:41.912Z,17.53
2023-03-16T15:16:44.468Z,17.13
2023-03-16T15:19:47.065Z,16.80
2023-03-16T15:22:51.156Z,17.41
2023-03-16T15:25:58.511Z,16.81
2023-03-16T15:29:01.228Z,15.58
2023-03-16T15:32:04.054Z,16.84
2023-03-16T15:35:07.454Z,17.23
2023-03-16T15:38:24.566Z,17.13
2023-03-16T15:41:32.434Z,16.16
2023-03-16T15:44:41.004Z,15.92
2023-03-16T15:47:44.052Z,16.15
2023-03-16T15:50:56.150Z,16.55
2023-03-16T15:54:01.951Z,16.25
2023-03-16T15:57:05.835Z,15.41
2023-03-16T16:00:38.323Z,13.83
2023-03-16T16:03:41.365Z,12.84
2023-03-16T16:06:44.071Z,11.89
2023-03-16T16:09:57.032Z,11.16
2023-03-16T16:13:01.153Z,10.85
2023-03-16T16:16:03.881Z,10.65
2023-03-16T16:19:06.561Z,10.48
2023-03-16T16:22:13.166Z,10.26
2023-03-16T16:25:16.471Z,10.09
2023-03-16T16:28:22.319Z,9.85
2023-03-16T16:31:26.380Z,9.62
2023-03-16T16:34:28.983Z,9.42
2023-03-16T16:37:31.471Z,9.21
2023-03-16T16:40:38.088Z,9.00
2023-03-16T16:43:44.137Z,8.87
2023-03-16T16:46:49.403Z,8.69
2023-03-16T16:49:52.819Z,8.53
2023-03-16T16:52:57.446Z,8.40
2023-03-16T16:56:00.236Z,8.28
2023-03-16T16:59:18.470Z,8.13
2023-03-16T17:02:33.174Z,8.03
2023-03-16T17:05:36.104Z,7.88
2023-03-16T17:08:39.124Z,7.75
2023-03-16T17:11:43.828Z,7.62
2023-03-16T17:14:46.504Z,7.44
2023-03-16T17:17:50.199Z,7.29
2023-03-16T17:20:52.830Z,7.11
2023-03-16T17:23:56.996Z,6.89
2023-03-16T17:27:01.519Z,6.69
2023-03-16T17:30:11.108Z,6.51
2023-03-16T17:33:16.767Z,6.38
2023-03-16T17:36:21.634Z,6.28
2023-03-16T17:39:29.712Z,6.18
2023-03-16T17:42:33.137Z,6.02
2023-03-16T17:45:37.657Z,5.94
2023-03-16T17:48:40.464Z,5.79
2023-03-16T17:51:44.331Z,5.59
2023-03-16T17:54:48.908Z,5.45
2023-03-16T17:57:54.325Z,5.35
2023-03-16T18:00:58.507Z,5.26
2023-03-16T18:04:02.158Z,4.99
2023-03-16T18:07:05.418Z,4.81
2023-03-16T18:10:15.173Z,4.77
2023-03-16T18:13:31.763Z,4.67
2023-03-16T18:16:34.822Z,4.48
2023-03-16T18:19:37.967Z,4.42
2023-03-16T18:22:41.394Z,4.32
2023-03-16T18:25:45.022Z,4.22
2023-03-16T18:28:48.502Z,4.10
2023-03-16T18:31:54.009Z,3.99
2023-03-16T18:34:58.125Z,3.93
2023-03-16T18:38:01.595Z,3.88
2023-03-16T18:41:17.534Z,3.78
2023-03-16T18:44:23.518Z,3.60
2023-03-16T18:47:31.752Z,3.49
2023-03-16T18:50:34.719Z,3.49
2023-03-16T18:53:38.171Z,3.40
2023-03-16T18:56:41.768Z,3.38
2023-03-16T18:59:45.416Z,3.31
2023-03-16T19:02:58.945Z,3.22
2023-03-16T19:06:02.263Z,3.21
2023-03-16T19:09:13.989Z,3.11
2023-03-16T19:12:24.623Z,3.07
2023-03-16T19:15:30.999Z,3.01
2023-03-16T19:18:42.320Z,2.99
2023-03-16T19:21:46.025Z,2.95
2023-03-16T19:24:52.609Z,2.87
2023-03-16T19:27:56.134Z,2.85
2023-03-16T19:30:59.705Z,2.85
2023-03-16T19:34:02.712Z,2.82
2023-03-16T19:37:06.708Z,2.81
2023-03-16T19:40:12.440Z,2.68
2023-03-16T19:43:20.590Z,2.62
2023-03-16T19:46:28.298Z,2.54
2023-03-16T19:49:31.389Z,2.51
2023-03-16T19:52:34.162Z,2.52
2023-03-16T19:55:38.264Z,2.45
2023-03-16T19:58:43.323Z,2.39
2023-03-16T20:01:47.524Z,2.32
2023-03-16T20:04:50.460Z,2.38
2023-03-16T20:07:55.445Z,2.33
2023-03-16T20:11:06.611Z,2.23
2023-03-16T20:14:19.708Z,2.16
2023-03-16T20:17:28.404Z,2.07
2023-03-16T20:20:37.581Z,2.07
2023-03-16T20:23:40.547Z,2.05
2023-03-16T20:26:45.128Z,1.98
2023-03-16T20:29:51.027Z,1.93
2023-03-16T20:32:53.918Z,1.90
2023-03-16T20:35:57.164Z,1.82
2023-03-16T20:38:59.837Z,1.76
2023-03-16T20:42:02.778Z,1.77
2023-03-16T20:45:24.861Z,1.79
2023-03-16T20:48:28.528Z,1.77
2023-03-16T20:51:32.801Z,1.74
2023-03-16T20:54:35.949Z,1.64
2023-03-16T20:57:40.260Z,1.53
2023-03-16T21:00:44.409Z,1.43
2023-03-16T21:03:54.472Z,1.30
2023-03-16T21:06:57.746Z,1.23
2023-03-16T21:10:00.588Z,1.14
2023-03-16T21:13:04.221Z,1.07
2023-03-16T21:16:11.707Z,0.97
2023-03-16T21:19:21.120Z,0.92
2023-03-16T21:22:29.241Z,0.89
2023-03-16T21:25:44.866Z,0.82
2023-03-16T21:28:55.809Z,0.78
2023-03-16T21:31:58.984Z,0.72
2023-03-16T21:35:01.627Z,0.65
2023-03-16T21:38:13.974Z,0.55
2023-03-16T21:41:17.808Z,0.57
2023-03-16T21:44:20.786Z,0.58
2023-03-16T21:47:26.378Z,0.57
2023-03-16T21:50:36.859Z,0.43
2023-03-16T21:53:39.578Z,0.36
2023-03-16T21:56:42.446Z,0.32
2023-03-16T21:59:45.162Z,0.27
2023-03-16T22:02:49.958Z,0.23
2023-03-16T22:05:53.467Z,0.23
2023-03-16T22:08:59.740Z,0.19
2023-03-16T22:12:02.479Z,0.07
2023-03-16T22:15:05.608Z,0.05
2023-03-16T22:18:20.857Z,-0.04
2023-03-16T22:21:35.115Z,-0.01
2023-03-16T22:24:38.061Z,0.07
2023-03-16T22:27:41.422Z,-0.04
2023-03-16T22:30:44.891Z,-0.12
2023-03-16T22:33:50.313Z,-0.20
2023-03-16T22:36:53.510Z,-0.18
2023-03-16T22:39:58.505Z,-0.19
2023-03-16T22:43:04.529Z,-0.13
2023-03-16T22:46:11.608Z,-0.16
2023-03-16T22:49:24.722Z,-0.26
2023-03-16T22:52:30.955Z,-0.26
2023-03-16T22:55:38.308Z,-0.24
2023-03-16T22:58:51.264Z,-0.35
2023-03-16T23:01:53.928Z,-0.33
2023-03-16T23:04:57.670Z,-0.35
2023-03-16T23:08:02.596Z,-0.38
2023-03-16T23:11:05.438Z,-0.45
2023-03-16T23:14:17.548Z,-0.41
2023-03-16T23:17:22.435Z,-0.47
2023-03-16T23:20:28.972Z,-0.54
2023-03-16T23:23:32.363Z,-0.53
2023-03-16T23:26:34.806Z,-0.59
2023-03-16T23:29:37.658Z,-0.64
2023-03-16T23:32:41.453Z,-0.73
2023-03-16T23:35:46.697Z,-0.67
2023-03-16T23:38:50.561Z,-0.62
2023-03-16T23:41:53.199Z,-0.70
2023-03-16T23:44:56.410Z,-0.72
2023-03-16T23:48:01.893Z,-0.79
2023-03-16T23:51:05.777Z,-0.81
2023-03-16T23:54:24.948Z,-0.85
2023-03-16T23:57:27.695Z,-0.83
